Sacramento, California
Traffic Map
Current Weather Conditions
Sacramento, California
Clear
Clear
102°
Feels Like: 102°
Wind Chill: 102° Ceiling: Unl
Heat Index: 102° Visibility: 10mi
Dew Point: 52° Wind: 7mph
Humidity: 19% Direction: 290° (WNW)
Pressure: 29.81in Gusts: 0mph
Raw Report DataKSAC 302053Z AUTO 29006KT 10SM CLR 39/11 A2981 RMK AO2 SLP093 T03890111 58017 TSNO
Traffic Incident Summary
Active as of:
Severity:
Category:
InformationThere was an issue retrieving the traffic information for this location. Please try a different location or try again shortly.
Advertisements
Track Severe Weather on mobile